createdAt,value
2023-05-12T00:01:17.052Z,100.00
2023-05-12T00:03:43.739Z,100.00
2023-05-12T00:06:10.457Z,100.00
2023-05-12T00:08:36.954Z,100.00
2023-05-12T00:11:03.862Z,100.00
2023-05-12T00:13:30.340Z,100.00
2023-05-12T00:15:58.860Z,100.00
2023-05-12T00:18:26.327Z,100.00
2023-05-12T00:20:54.423Z,100.00
2023-05-12T00:23:22.120Z,100.00
2023-05-12T00:25:49.003Z,100.00
2023-05-12T00:28:15.531Z,100.00
2023-05-12T00:30:41.995Z,100.00
2023-05-12T00:33:11.455Z,100.00
2023-05-12T00:35:37.862Z,100.00
2023-05-12T00:38:04.247Z,100.00
2023-05-12T00:40:31.081Z,100.00
2023-05-12T00:42:57.589Z,100.00
2023-05-12T00:45:24.342Z,100.00
2023-05-12T00:47:52.261Z,100.00
2023-05-12T00:50:19.155Z,100.00
2023-05-12T00:52:47.047Z,100.00
2023-05-12T00:55:13.683Z,100.00
2023-05-12T00:57:41.454Z,100.00
2023-05-12T01:00:08.820Z,100.00
2023-05-12T01:02:36.483Z,100.00
2023-05-12T01:05:03.873Z,100.00
2023-05-12T01:07:33.099Z,100.00
2023-05-12T01:09:59.827Z,100.00
2023-05-12T01:12:27.121Z,100.00
2023-05-12T01:14:56.063Z,100.00
2023-05-12T01:17:32.876Z,100.00
2023-05-12T01:20:02.306Z,100.00
2023-05-12T01:22:33.683Z,100.00
2023-05-12T01:25:04.182Z,100.00
2023-05-12T01:27:31.994Z,100.00
2023-05-12T01:30:01.737Z,100.00
2023-05-12T01:32:28.228Z,100.00
2023-05-12T01:34:54.611Z,100.00
2023-05-12T01:37:21.136Z,100.00
2023-05-12T01:39:47.636Z,100.00
2023-05-12T01:42:14.061Z,100.00
2023-05-12T01:44:40.730Z,100.00
2023-05-12T01:47:09.901Z,100.00
2023-05-12T01:49:37.207Z,100.00
2023-05-12T01:52:04.221Z,100.00
2023-05-12T01:54:30.753Z,100.00
2023-05-12T01:56:57.209Z,100.00
2023-05-12T01:59:23.622Z,100.00
2023-05-12T02:01:50.163Z,100.00
2023-05-12T02:04:16.610Z,100.00
2023-05-12T02:06:43.086Z,100.00
2023-05-12T02:09:09.585Z,100.00
2023-05-12T02:11:36.638Z,100.00
2023-05-12T02:14:03.318Z,100.00
2023-05-12T02:16:29.728Z,100.00
2023-05-12T02:18:56.198Z,100.00
2023-05-12T02:21:22.697Z,100.00
2023-05-12T02:23:49.204Z,100.00
2023-05-12T02:26:15.761Z,100.00
2023-05-12T02:28:42.188Z,100.00
2023-05-12T02:31:08.935Z,100.00
2023-05-12T02:33:35.409Z,100.00
2023-05-12T02:36:01.824Z,100.00
2023-05-12T02:38:28.267Z,100.00
2023-05-12T02:40:55.108Z,100.00
2023-05-12T02:43:21.654Z,100.00
2023-05-12T02:45:48.133Z,100.00
2023-05-12T02:48:14.546Z,100.00
2023-05-12T02:50:40.955Z,100.00
2023-05-12T02:53:07.378Z,100.00
2023-05-12T02:55:34.064Z,100.00
2023-05-12T02:58:00.526Z,100.00
2023-05-12T03:00:27.028Z,100.00
2023-05-12T03:02:53.543Z,100.00
2023-05-12T03:05:20.198Z,100.00
2023-05-12T03:07:49.417Z,100.00
2023-05-12T03:10:17.632Z,100.00
2023-05-12T03:12:44.124Z,100.00
2023-05-12T03:15:11.191Z,100.00
2023-05-12T03:17:37.683Z,100.00
2023-05-12T03:20:04.581Z,100.00
2023-05-12T03:22:31.058Z,100.00
2023-05-12T03:24:57.475Z,100.00
2023-05-12T03:27:23.967Z,100.00
2023-05-12T03:29:50.420Z,100.00
2023-05-12T03:32:16.828Z,100.00
2023-05-12T03:34:43.223Z,100.00
2023-05-12T03:37:09.649Z,100.00
2023-05-12T03:39:36.002Z,100.00
2023-05-12T03:42:02.915Z,100.00
2023-05-12T03:44:29.297Z,100.00
2023-05-12T03:46:55.766Z,100.00
2023-05-12T03:49:22.206Z,100.00
2023-05-12T03:51:48.559Z,100.00
2023-05-12T03:54:14.986Z,100.00
2023-05-12T03:56:41.385Z,100.00
2023-05-12T03:59:07.850Z,100.00
2023-05-12T04:01:34.373Z,100.00
2023-05-12T04:04:00.842Z,100.00
2023-05-12T04:06:27.381Z,100.00
2023-05-12T04:08:53.777Z,100.00
2023-05-12T04:11:20.137Z,100.00
2023-05-12T04:13:46.568Z,100.00
2023-05-12T04:16:13.115Z,100.00
2023-05-12T04:18:39.670Z,100.00
2023-05-12T04:21:06.187Z,100.00
2023-05-12T04:23:32.703Z,100.00
2023-05-12T04:25:59.160Z,100.00
2023-05-12T04:28:25.731Z,100.00
2023-05-12T04:30:52.153Z,100.00
2023-05-12T04:33:18.553Z,100.00
2023-05-12T04:35:45.080Z,100.00
2023-05-12T04:38:11.503Z,100.00
2023-05-12T04:40:38.057Z,100.00
2023-05-12T04:43:04.852Z,100.00
2023-05-12T04:45:31.274Z,100.00
2023-05-12T04:47:57.695Z,100.00
2023-05-12T04:50:24.123Z,100.00
2023-05-12T04:52:50.489Z,100.00
2023-05-12T04:55:17.002Z,100.00
2023-05-12T04:57:43.427Z,100.00
2023-05-12T05:00:10.467Z,100.00
2023-05-12T05:02:37.209Z,100.00
2023-05-12T05:05:03.858Z,100.00
2023-05-12T05:07:30.273Z,100.00
2023-05-12T05:09:56.717Z,100.00
2023-05-12T05:12:23.154Z,100.00
2023-05-12T05:14:49.574Z,100.00
2023-05-12T05:17:16.024Z,100.00
2023-05-12T05:19:55.149Z,100.00
2023-05-12T05:22:25.218Z,100.00
2023-05-12T05:24:52.051Z,100.00
2023-05-12T05:27:19.108Z,100.00
2023-05-12T05:29:45.743Z,100.00
2023-05-12T05:32:12.281Z,100.00
2023-05-12T05:34:38.731Z,100.00
2023-05-12T05:37:05.692Z,100.00
2023-05-12T05:39:32.260Z,100.00
2023-05-12T05:41:58.714Z,100.00
2023-05-12T05:44:25.471Z,100.00
2023-05-12T05:46:52.116Z,100.00
2023-05-12T05:49:19.085Z,100.00
2023-05-12T05:51:45.568Z,100.00
2023-05-12T05:54:12.229Z,100.00
2023-05-12T05:56:38.715Z,100.00
2023-05-12T05:59:05.438Z,100.00
2023-05-12T06:01:32.538Z,100.00
2023-05-12T06:03:59.244Z,100.00
2023-05-12T06:06:25.867Z,100.00
2023-05-12T06:08:52.316Z,100.00
2023-05-12T06:11:18.757Z,100.00
2023-05-12T06:13:45.132Z,100.00
2023-05-12T06:16:11.557Z,100.00
2023-05-12T06:18:38.628Z,100.00
2023-05-12T06:21:06.234Z,100.00
2023-05-12T06:23:32.698Z,100.00
2023-05-12T06:25:59.245Z,100.00
2023-05-12T06:28:25.854Z,100.00
2023-05-12T06:30:52.254Z,100.00
2023-05-12T06:33:18.719Z,100.00
2023-05-12T06:35:45.160Z,100.00
2023-05-12T06:38:11.929Z,100.00
2023-05-12T06:40:38.330Z,100.00
2023-05-12T06:43:04.801Z,100.00
2023-05-12T06:45:31.223Z,100.00
2023-05-12T06:47:57.841Z,100.00
2023-05-12T06:50:24.367Z,100.00
2023-05-12T06:52:51.172Z,100.00
2023-05-12T06:55:20.494Z,100.00
2023-05-12T06:57:47.667Z,100.00
2023-05-12T07:00:14.641Z,100.00
2023-05-12T07:02:41.305Z,100.00
2023-05-12T07:05:08.545Z,100.00
2023-05-12T07:07:35.984Z,100.00
2023-05-12T07:10:02.414Z,100.00
2023-05-12T07:12:28.840Z,100.00
2023-05-12T07:14:55.251Z,100.00
2023-05-12T07:17:21.902Z,100.00
2023-05-12T07:19:48.428Z,100.00
2023-05-12T07:22:14.991Z,100.00
2023-05-12T07:24:41.645Z,100.00
2023-05-12T07:27:08.221Z,100.00
2023-05-12T07:29:34.935Z,100.00
2023-05-12T07:32:01.366Z,100.00
2023-05-12T07:34:27.936Z,100.00
2023-05-12T07:36:54.514Z,100.00
2023-05-12T07:39:23.765Z,100.00
2023-05-12T07:41:51.222Z,100.00
2023-05-12T07:44:17.694Z,100.00
2023-05-12T07:46:44.414Z,100.00
2023-05-12T07:49:10.849Z,100.00
2023-05-12T07:51:37.396Z,100.00
2023-05-12T07:54:04.845Z,100.00
2023-05-12T07:56:31.337Z,100.00
2023-05-12T07:58:57.810Z,100.00
2023-05-12T08:01:24.381Z,100.00
2023-05-12T08:03:51.476Z,100.00
2023-05-12T08:06:18.739Z,100.00
2023-05-12T08:08:45.240Z,100.00
2023-05-12T08:11:12.632Z,100.00
2023-05-12T08:13:39.445Z,100.00
2023-05-12T08:16:06.332Z,100.00
2023-05-12T08:18:32.821Z,100.00
2023-05-12T08:20:59.285Z,100.00
2023-05-12T08:23:25.788Z,100.00
2023-05-12T08:25:52.227Z,100.00
2023-05-12T08:28:18.641Z,100.00
2023-05-12T08:30:45.590Z,100.00
2023-05-12T08:33:12.791Z,100.00
2023-05-12T08:35:41.644Z,100.00
2023-05-12T08:38:08.309Z,100.00
2023-05-12T08:40:44.510Z,100.00
2023-05-12T08:43:29.916Z,100.00
2023-05-12T08:46:00.087Z,100.00
2023-05-12T08:48:29.236Z,100.00
2023-05-12T08:50:57.825Z,100.00
2023-05-12T08:53:25.759Z,100.00
2023-05-12T08:57:09.065Z,100.00
2023-05-12T08:58:42.720Z,100.00
2023-05-12T09:01:11.308Z,100.00
2023-05-12T09:03:37.997Z,100.00
2023-05-12T09:06:06.335Z,100.00
2023-05-12T09:08:34.790Z,100.00
2023-05-12T09:11:01.787Z,100.00
2023-05-12T09:13:53.322Z,100.00
2023-05-12T09:16:24.357Z,100.00
2023-05-12T09:18:53.258Z,100.00
2023-05-12T09:21:19.982Z,100.00
2023-05-12T09:23:56.413Z,100.00
2023-05-12T09:26:23.958Z,100.00
2023-05-12T09:28:53.065Z,100.00
2023-05-12T09:31:22.448Z,100.00
2023-05-12T09:33:50.696Z,100.00
2023-05-12T09:36:19.230Z,100.00
2023-05-12T09:38:45.886Z,100.00
2023-05-12T09:41:12.647Z,100.00
2023-05-12T09:43:45.938Z,100.00
2023-05-12T09:46:12.408Z,100.00
2023-05-12T09:48:39.123Z,100.00
2023-05-12T09:51:09.723Z,100.00
2023-05-12T09:53:42.862Z,100.00
2023-05-12T09:56:09.284Z,100.00
2023-05-12T09:58:36.872Z,100.00
2023-05-12T10:01:18.352Z,100.00
2023-05-12T10:03:52.137Z,100.00
2023-05-12T10:06:26.639Z,100.00
2023-05-12T10:09:11.524Z,100.00
2023-05-12T10:11:38.311Z,100.00
2023-05-12T10:14:08.140Z,100.00
2023-05-12T10:16:35.453Z,100.00
2023-05-12T10:19:06.136Z,100.00
2023-05-12T10:21:33.152Z,100.00
2023-05-12T10:24:00.595Z,100.00
2023-05-12T10:26:27.352Z,100.00
2023-05-12T10:28:53.983Z,100.00
2023-05-12T10:31:21.210Z,100.00
2023-05-12T10:33:59.445Z,100.00
2023-05-12T10:36:26.576Z,100.00
2023-05-12T10:38:53.553Z,100.00
2023-05-12T10:41:33.382Z,97.42
2023-05-12T10:44:00.174Z,100.00
2023-05-12T10:46:27.609Z,100.00
2023-05-12T10:48:55.479Z,100.00
2023-05-12T10:51:33.586Z,99.09
2023-05-12T10:54:07.184Z,99.39
2023-05-12T10:56:40.030Z,97.57
2023-05-12T10:59:24.471Z,100.00
2023-05-12T11:02:00.255Z,100.00
2023-05-12T11:04:42.250Z,100.00
2023-05-12T11:07:12.173Z,100.00
2023-05-12T11:09:52.139Z,100.00
2023-05-12T11:12:24.409Z,99.78
2023-05-12T11:14:50.849Z,98.42
2023-05-12T11:17:17.329Z,100.00
2023-05-12T11:19:49.506Z,99.27
2023-05-12T11:22:21.602Z,97.41
2023-05-12T11:24:49.437Z,97.98
2023-05-12T11:27:18.742Z,97.58
2023-05-12T11:29:55.216Z,96.59
2023-05-12T11:32:21.668Z,96.79
2023-05-12T11:34:48.601Z,94.59
2023-05-12T11:37:15.121Z,95.43
2023-05-12T11:39:41.805Z,96.93
2023-05-12T11:42:13.250Z,98.51
2023-05-12T11:44:49.952Z,90.80
2023-05-12T11:47:17.709Z,93.75
2023-05-12T11:49:49.026Z,91.53
2023-05-12T11:52:16.038Z,92.97
2023-05-12T11:55:00.734Z,86.95
2023-05-12T11:57:32.494Z,86.18
2023-05-12T12:00:09.682Z,88.49
2023-05-12T12:02:37.522Z,86.97
2023-05-12T12:05:05.849Z,87.26
2023-05-12T12:07:35.857Z,85.86
2023-05-12T12:10:16.409Z,84.69
2023-05-12T12:12:43.052Z,86.82
2023-05-12T12:15:10.723Z,87.75
2023-05-12T12:17:37.871Z,86.93
2023-05-12T12:20:04.637Z,85.11
2023-05-12T12:22:34.703Z,84.78
2023-05-12T12:25:02.007Z,84.80
2023-05-12T12:27:28.362Z,84.24
2023-05-12T12:29:54.768Z,86.16
2023-05-12T12:32:21.180Z,87.68
2023-05-12T12:34:48.953Z,86.46
2023-05-12T12:37:16.070Z,88.75
2023-05-12T12:39:42.682Z,88.73
2023-05-12T12:42:09.300Z,87.10
2023-05-12T12:44:35.686Z,85.96
2023-05-12T12:47:02.158Z,87.02
2023-05-12T12:49:29.314Z,86.79
2023-05-12T12:51:55.957Z,92.83
2023-05-12T12:54:22.713Z,96.29
2023-05-12T12:56:49.154Z,95.88
2023-05-12T12:59:15.611Z,96.83
2023-05-12T13:01:42.859Z,96.73
2023-05-12T13:04:09.479Z,96.39
2023-05-12T13:06:36.088Z,96.35
2023-05-12T13:09:03.883Z,98.51
2023-05-12T13:11:30.402Z,100.00
2023-05-12T13:13:56.763Z,100.00
2023-05-12T13:16:23.235Z,100.00
2023-05-12T13:18:49.845Z,100.00
2023-05-12T13:21:16.342Z,100.00
2023-05-12T13:23:42.784Z,100.00
2023-05-12T13:26:09.238Z,100.00
2023-05-12T13:28:35.779Z,100.00
2023-05-12T13:31:02.190Z,100.00
2023-05-12T13:33:29.121Z,100.00
2023-05-12T13:35:55.598Z,100.00
2023-05-12T13:38:22.367Z,100.00
2023-05-12T13:40:48.967Z,100.00
2023-05-12T13:43:15.377Z,100.00
2023-05-12T13:45:42.653Z,100.00
2023-05-12T13:48:09.122Z,100.00
2023-05-12T13:50:35.867Z,100.00
2023-05-12T13:53:02.331Z,100.00
2023-05-12T13:55:28.841Z,100.00
2023-05-12T13:57:55.293Z,100.00
2023-05-12T14:00:22.038Z,100.00
2023-05-12T14:02:48.828Z,100.00
2023-05-12T14:05:15.910Z,100.00
2023-05-12T14:07:42.598Z,100.00
2023-05-12T14:10:09.884Z,100.00
2023-05-12T14:12:37.107Z,100.00
2023-05-12T14:15:19.738Z,100.00
2023-05-12T14:17:50.387Z,100.00
2023-05-12T14:20:16.920Z,100.00
2023-05-12T14:22:43.427Z,100.00
2023-05-12T14:25:09.826Z,100.00
2023-05-12T14:27:36.325Z,100.00
2023-05-12T14:30:02.886Z,100.00
2023-05-12T14:32:29.608Z,100.00
2023-05-12T14:34:56.023Z,100.00
2023-05-12T14:37:22.454Z,100.00
2023-05-12T14:39:48.989Z,100.00
2023-05-12T14:42:15.621Z,100.00
2023-05-12T14:44:42.039Z,100.00
2023-05-12T14:47:09.246Z,100.00
2023-05-12T14:49:35.824Z,100.00
2023-05-12T14:52:02.746Z,100.00
2023-05-12T14:54:29.407Z,99.43
2023-05-12T14:56:56.515Z,96.90
2023-05-12T14:59:23.010Z,93.63
2023-05-12T15:01:49.572Z,92.64
2023-05-12T15:04:16.204Z,92.41
2023-05-12T15:06:42.617Z,90.17
2023-05-12T15:09:09.069Z,91.71
2023-05-12T15:11:36.823Z,89.49
2023-05-12T15:14:04.708Z,84.20
2023-05-12T15:16:32.843Z,85.62
2023-05-12T15:18:59.400Z,87.26
2023-05-12T15:21:26.030Z,88.22
2023-05-12T15:23:52.472Z,89.78
2023-05-12T15:26:32.044Z,90.58
2023-05-12T15:29:00.509Z,92.07
2023-05-12T15:31:29.431Z,94.51
2023-05-12T15:33:56.974Z,95.41
2023-05-12T15:36:23.510Z,98.29
2023-05-12T15:38:49.921Z,99.04
2023-05-12T15:41:16.351Z,99.21
2023-05-12T15:43:42.806Z,97.45
2023-05-12T15:46:10.864Z,98.37
2023-05-12T15:48:37.621Z,98.10
2023-05-12T15:51:04.347Z,98.26
2023-05-12T15:53:31.190Z,97.96
2023-05-12T15:56:02.014Z,98.03
2023-05-12T15:58:28.879Z,97.83
2023-05-12T16:00:56.052Z,97.59
2023-05-12T16:03:23.615Z,97.65
2023-05-12T16:05:50.510Z,97.11
2023-05-12T16:08:16.999Z,96.43
2023-05-12T16:10:43.397Z,95.13
2023-05-12T16:13:09.823Z,93.81
2023-05-12T16:15:36.355Z,92.65
2023-05-12T16:18:02.867Z,93.04
2023-05-12T16:20:29.814Z,93.66
2023-05-12T16:22:56.321Z,93.20
2023-05-12T16:25:23.082Z,93.81
2023-05-12T16:27:49.862Z,94.33
2023-05-12T16:30:19.139Z,94.55
2023-05-12T16:32:47.239Z,94.72
2023-05-12T16:35:13.888Z,95.47
2023-05-12T16:37:40.429Z,95.70
2023-05-12T16:40:07.650Z,96.22
2023-05-12T16:42:34.143Z,97.19
2023-05-12T16:45:00.683Z,97.10
2023-05-12T16:47:27.364Z,98.48
2023-05-12T16:49:53.900Z,99.06
2023-05-12T16:52:20.606Z,99.04
2023-05-12T16:54:47.712Z,100.00
2023-05-12T16:57:14.173Z,100.00
2023-05-12T16:59:40.604Z,100.00
2023-05-12T17:02:08.310Z,99.55
2023-05-12T17:04:34.907Z,96.11
2023-05-12T17:07:01.260Z,95.84
2023-05-12T17:09:27.749Z,98.00
2023-05-12T17:11:54.408Z,100.00
2023-05-12T17:14:20.996Z,100.00
2023-05-12T17:16:47.434Z,100.00
2023-05-12T17:19:14.614Z,100.00
2023-05-12T17:21:41.875Z,100.00
2023-05-12T17:24:08.711Z,100.00
2023-05-12T17:26:35.417Z,100.00
2023-05-12T17:29:02.419Z,100.00
2023-05-12T17:31:29.015Z,100.00
2023-05-12T17:33:55.574Z,100.00
2023-05-12T17:36:22.156Z,100.00
2023-05-12T17:38:49.953Z,100.00
2023-05-12T17:41:16.451Z,100.00
2023-05-12T17:43:42.969Z,100.00
2023-05-12T17:46:09.602Z,100.00
2023-05-12T17:48:36.273Z,100.00
2023-05-12T17:51:03.361Z,100.00
2023-05-12T17:53:31.156Z,100.00
2023-05-12T17:55:58.099Z,100.00
2023-05-12T17:58:24.743Z,100.00
2023-05-12T18:00:51.326Z,100.00
2023-05-12T18:03:23.091Z,100.00
2023-05-12T18:05:50.903Z,100.00
2023-05-12T18:08:17.573Z,100.00
2023-05-12T18:10:44.133Z,100.00
2023-05-12T18:13:10.905Z,100.00
2023-05-12T18:15:37.454Z,100.00
2023-05-12T18:18:04.258Z,100.00
2023-05-12T18:20:30.825Z,100.00
2023-05-12T18:22:57.342Z,100.00
2023-05-12T18:25:23.860Z,100.00
2023-05-12T18:27:50.327Z,100.00
2023-05-12T18:30:16.781Z,100.00
2023-05-12T18:32:43.314Z,100.00
2023-05-12T18:35:09.897Z,100.00
2023-05-12T18:37:36.315Z,100.00
2023-05-12T18:40:02.808Z,100.00
2023-05-12T18:42:29.235Z,100.00
2023-05-12T18:44:56.263Z,100.00
2023-05-12T18:47:22.706Z,100.00
2023-05-12T18:49:49.293Z,100.00
2023-05-12T18:52:15.725Z,100.00
2023-05-12T18:54:42.151Z,100.00
2023-05-12T18:57:08.770Z,100.00
2023-05-12T18:59:35.169Z,100.00
2023-05-12T19:02:01.866Z,100.00
2023-05-12T19:04:28.397Z,100.00
2023-05-12T19:06:54.831Z,100.00
2023-05-12T19:09:21.226Z,100.00
2023-05-12T19:11:48.012Z,100.00
2023-05-12T19:14:16.603Z,100.00
2023-05-12T19:16:43.348Z,100.00
2023-05-12T19:19:10.061Z,100.00
2023-05-12T19:21:36.793Z,100.00
2023-05-12T19:24:03.429Z,100.00
2023-05-12T19:26:29.849Z,100.00
2023-05-12T19:28:56.240Z,100.00
2023-05-12T19:31:22.821Z,100.00
2023-05-12T19:33:49.350Z,100.00
2023-05-12T19:36:15.742Z,100.00
2023-05-12T19:38:44.074Z,100.00
2023-05-12T19:41:10.823Z,100.00
2023-05-12T19:43:37.266Z,100.00
2023-05-12T19:46:03.785Z,100.00
2023-05-12T19:48:30.660Z,100.00
2023-05-12T19:50:57.199Z,100.00
2023-05-12T19:53:23.583Z,100.00
2023-05-12T19:55:49.976Z,100.00
2023-05-12T19:58:16.349Z,100.00
2023-05-12T20:00:42.794Z,100.00
2023-05-12T20:03:09.462Z,100.00
2023-05-12T20:05:38.865Z,100.00
2023-05-12T20:08:05.892Z,100.00
2023-05-12T20:10:32.455Z,100.00
2023-05-12T20:12:58.926Z,100.00
2023-05-12T20:15:25.376Z,100.00
2023-05-12T20:17:51.814Z,100.00
2023-05-12T20:20:18.258Z,100.00
2023-05-12T20:22:44.705Z,100.00
2023-05-12T20:25:14.260Z,100.00
2023-05-12T20:27:40.662Z,100.00
2023-05-12T20:30:07.830Z,100.00
2023-05-12T20:32:34.489Z,100.00
2023-05-12T20:35:01.232Z,100.00
2023-05-12T20:37:28.014Z,100.00
2023-05-12T20:39:55.563Z,100.00
2023-05-12T20:42:21.998Z,100.00
2023-05-12T20:44:48.573Z,100.00
2023-05-12T20:47:15.029Z,100.00
2023-05-12T20:49:42.128Z,100.00
2023-05-12T20:52:08.549Z,100.00
2023-05-12T20:54:35.080Z,100.00
2023-05-12T20:57:01.473Z,100.00
2023-05-12T20:59:27.880Z,100.00
2023-05-12T21:01:54.340Z,100.00
2023-05-12T21:04:20.878Z,100.00
2023-05-12T21:06:47.248Z,100.00
2023-05-12T21:09:13.868Z,100.00
2023-05-12T21:11:41.498Z,100.00
2023-05-12T21:14:07.872Z,100.00
2023-05-12T21:16:34.343Z,100.00
2023-05-12T21:19:00.797Z,100.00
2023-05-12T21:21:28.622Z,100.00
2023-05-12T21:23:55.053Z,100.00
2023-05-12T21:26:21.502Z,100.00
2023-05-12T21:28:47.958Z,100.00
2023-05-12T21:31:14.374Z,100.00
2023-05-12T21:33:40.813Z,100.00
2023-05-12T21:36:07.502Z,100.00
2023-05-12T21:38:33.896Z,100.00
2023-05-12T21:41:00.439Z,100.00
2023-05-12T21:43:26.934Z,100.00
2023-05-12T21:45:53.397Z,100.00
2023-05-12T21:48:19.796Z,100.00
2023-05-12T21:50:57.286Z,100.00
2023-05-12T21:53:23.725Z,100.00
2023-05-12T21:55:50.172Z,100.00
2023-05-12T21:58:16.596Z,100.00
2023-05-12T22:00:43.145Z,100.00
2023-05-12T22:03:09.856Z,100.00
2023-05-12T22:05:36.430Z,100.00
2023-05-12T22:08:02.881Z,100.00
2023-05-12T22:10:31.744Z,100.00
2023-05-12T22:12:58.162Z,100.00
2023-05-12T22:15:24.582Z,100.00
2023-05-12T22:17:51.132Z,100.00
2023-05-12T22:20:18.425Z,100.00
2023-05-12T22:22:45.063Z,100.00
2023-05-12T22:25:11.587Z,100.00
2023-05-12T22:27:38.050Z,100.00
2023-05-12T22:30:04.994Z,100.00
2023-05-12T22:32:32.674Z,100.00
2023-05-12T22:34:59.233Z,100.00
2023-05-12T22:37:26.001Z,100.00
2023-05-12T22:39:52.468Z,100.00
2023-05-12T22:42:18.889Z,100.00
2023-05-12T22:44:45.480Z,100.00
2023-05-12T22:47:12.515Z,100.00
2023-05-12T22:49:39.066Z,100.00
2023-05-12T22:52:05.976Z,100.00
2023-05-12T22:54:32.471Z,100.00
2023-05-12T22:56:58.860Z,100.00
2023-05-12T22:59:25.420Z,100.00
2023-05-12T23:01:51.893Z,100.00
2023-05-12T23:04:18.336Z,100.00
2023-05-12T23:06:44.755Z,100.00
2023-05-12T23:09:11.121Z,100.00
2023-05-12T23:11:38.100Z,100.00
2023-05-12T23:14:04.489Z,100.00
2023-05-12T23:16:31.046Z,100.00
2023-05-12T23:18:57.563Z,100.00
2023-05-12T23:21:24.011Z,100.00
2023-05-12T23:23:50.547Z,100.00
2023-05-12T23:26:16.947Z,100.00
2023-05-12T23:28:43.324Z,100.00
2023-05-12T23:31:10.137Z,100.00
2023-05-12T23:33:36.743Z,100.00
2023-05-12T23:36:03.509Z,100.00
2023-05-12T23:38:29.899Z,100.00
2023-05-12T23:40:56.332Z,100.00
2023-05-12T23:43:22.767Z,100.00
2023-05-12T23:45:49.335Z,100.00
2023-05-12T23:48:15.874Z,100.00
2023-05-12T23:50:42.342Z,100.00
2023-05-12T23:53:08.754Z,100.00
2023-05-12T23:55:37.136Z,100.00
2023-05-12T23:58:03.587Z,100.00
